Time,TemperatureF,DewpointF,PressureIn,WindDirection,WindDirectionDegrees,WindSpeedMPH,WindSpeedGustMPH,Humidity,HourlyPrecipIn,Conditions,Clouds,dailyrainin,SoftwareType,DateUTC
2013-04-18 00:02:00,14.0,12.0,-100.00,NW,311,8.0,10.0,92,0.00,,,-99.99,,2013-04-18 00:02:00,
2013-04-18 00:12:00,13.0,12.0,-100.00,NW,305,9.0,11.0,92,0.00,,,-99.99,,2013-04-18 00:12:00,
2013-04-18 00:22:00,13.0,11.0,-100.00,NW,308,9.0,11.0,92,0.00,,,-99.99,,2013-04-18 00:22:00,
2013-04-18 00:32:00,13.0,11.0,-100.00,NW,304,7.0,9.0,93,0.06,,,-99.99,,2013-04-18 00:32:00,
2013-04-18 00:42:00,13.0,11.0,-100.00,WNW,294,11.0,17.0,92,0.01,,,-99.99,,2013-04-18 00:42:00,
2013-04-18 00:52:00,12.0,10.0,-100.00,WNW,295,16.0,20.0,92,0.00,,,-99.99,,2013-04-18 00:52:00,
2013-04-18 01:02:00,11.0,10.0,-100.00,WNW,296,15.0,18.0,92,0.00,,,-99.99,,2013-04-18 01:02:00,
2013-04-18 01:12:00,11.0,9.0,-100.00,WNW,298,16.0,19.0,92,0.00,,,-99.99,,2013-04-18 01:12:00,
2013-04-18 01:22:00,11.0,9.0,-100.00,WNW,298,16.0,18.0,92,0.00,,,-99.99,,2013-04-18 01:22:00,
2013-04-18 01:32:00,11.0,9.0,-100.00,WNW,289,14.0,17.0,92,0.01,,,-99.99,,2013-04-18 01:32:00,
2013-04-18 01:42:00,11.0,9.0,-100.00,WNW,285,15.0,17.0,92,0.00,,,-99.99,,2013-04-18 01:42:00,
2013-04-18 01:52:00,10.0,9.0,-100.00,WNW,282,14.0,19.0,92,0.00,,,-99.99,,2013-04-18 01:52:00,
2013-04-18 02:02:00,10.0,8.0,-100.00,West,278,12.0,16.0,92,0.00,,,-99.99,,2013-04-18 02:02:00,
2013-04-18 02:12:00,10.0,8.0,-100.00,West,271,12.0,15.0,92,0.00,,,-99.99,,2013-04-18 02:12:00,
2013-04-18 02:22:00,10.0,8.0,-100.00,West,265,12.0,15.0,92,0.00,,,-99.99,,2013-04-18 02:22:00,
2013-04-18 02:32:00,10.0,8.0,-100.00,West,261,11.0,16.0,92,0.00,,,-99.99,,2013-04-18 02:32:00,
2013-04-18 02:42:00,10.0,8.0,-100.00,West,261,11.0,16.0,92,0.00,,,-99.99,,2013-04-18 02:42:00,
2013-04-18 02:52:00,10.0,8.0,-100.00,West,261,11.0,16.0,92,0.00,,,-99.99,,2013-04-18 02:52:00,
2013-04-18 03:02:00,10.0,8.0,-100.00,WSW,248,10.0,13.0,92,0.00,,,-99.99,,2013-04-18 03:02:00,
2013-04-18 03:12:00,10.0,8.0,-100.00,WSW,254,9.0,12.0,92,0.00,,,-99.99,,2013-04-18 03:12:00,
2013-04-18 03:22:00,10.0,8.0,-100.00,West,261,10.0,12.0,92,0.00,,,-99.99,,2013-04-18 03:22:00,
2013-04-18 03:33:00,10.0,8.0,-100.00,WSW,254,9.0,11.0,92,0.00,,,-99.99,,2013-04-18 03:33:00,
2013-04-18 03:43:00,10.0,8.0,-100.00,WSW,256,9.0,11.0,92,0.00,,,-99.99,,2013-04-18 03:43:00,
2013-04-18 03:53:00,10.0,8.0,-100.00,WSW,251,9.0,10.0,92,0.00,,,-99.99,,2013-04-18 03:53:00,
2013-04-18 04:03:00,9.0,8.0,-100.00,WSW,248,8.0,10.0,92,0.00,,,-99.99,,2013-04-18 04:03:00,
2013-04-18 04:13:00,9.0,8.0,-100.00,WSW,243,8.0,10.0,92,0.00,,,-99.99,,2013-04-18 04:13:00,
2013-04-18 04:23:00,9.0,7.0,-100.00,WSW,243,8.0,10.0,91,0.00,,,-99.99,,2013-04-18 04:23:00,
2013-04-18 04:33:00,10.0,8.0,-100.00,WSW,247,9.0,12.0,92,0.00,,,-99.99,,2013-04-18 04:33:00,
2013-04-18 04:43:00,10.0,8.0,-100.00,WSW,250,10.0,11.0,91,0.00,,,-99.99,,2013-04-18 04:43:00,
2013-04-18 04:53:00,9.0,8.0,-100.00,WSW,248,10.0,12.0,91,0.00,,,-99.99,,2013-04-18 04:53:00,
2013-04-18 05:02:00,9.0,7.0,-100.00,WSW,246,10.0,12.0,91,0.00,,,-99.99,,2013-04-18 05:02:00,
2013-04-18 05:12:00,9.0,7.0,-100.00,WSW,248,9.0,11.0,91,0.00,,,-99.99,,2013-04-18 05:12:00,
2013-04-18 05:22:00,9.0,7.0,-100.00,WSW,248,10.0,12.0,91,0.00,,,-99.99,,2013-04-18 05:22:00,
2013-04-18 05:33:00,9.0,7.0,-100.00,WSW,256,11.0,13.0,91,0.00,,,-99.99,,2013-04-18 05:33:00,
2013-04-18 05:42:00,9.0,7.0,-100.00,WSW,258,10.0,12.0,91,0.00,,,-99.99,,2013-04-18 05:42:00,
2013-04-18 05:52:00,8.0,5.0,-100.00,West,261,9.0,11.0,90,0.00,,,-99.99,,2013-04-18 05:52:00,
2013-04-18 06:02:00,6.0,3.0,-100.00,West,265,10.0,12.0,89,0.00,,,-99.99,,2013-04-18 06:02:00,
2013-04-18 06:12:00,6.0,4.0,-100.00,West,260,11.0,14.0,91,0.00,,,-99.99,,2013-04-18 06:12:00,
2013-04-18 06:22:00,7.0,5.0,-100.00,WSW,256,12.0,14.0,91,0.00,,,-99.99,,2013-04-18 06:22:00,
2013-04-18 06:32:00,8.0,6.0,-100.00,WSW,257,12.0,14.0,91,0.00,,,-99.99,,2013-04-18 06:32:00,
2013-04-18 06:42:00,8.0,5.0,-100.00,West,260,11.0,13.0,90,0.00,,,-99.99,,2013-04-18 06:42:00,
2013-04-18 06:52:00,7.0,5.0,-100.00,WSW,256,9.0,11.0,90,0.00,,,-99.99,,2013-04-18 06:52:00,
2013-04-18 07:02:00,7.0,5.0,-100.00,WSW,251,9.0,10.0,90,0.00,,,-99.99,,2013-04-18 07:02:00,
2013-04-18 07:12:00,6.0,3.0,-100.00,WSW,257,7.0,10.0,89,0.00,,,-99.99,,2013-04-18 07:12:00,
2013-04-18 07:22:00,4.0,2.0,-100.00,WSW,256,9.0,10.0,89,0.00,,,-99.99,,2013-04-18 07:22:00,
2013-04-18 07:32:00,5.0,3.0,-100.00,WSW,256,10.0,12.0,90,0.00,,,-99.99,,2013-04-18 07:32:00,
2013-04-18 07:42:00,4.0,1.0,-100.00,West,261,10.0,12.0,89,0.00,,,-99.99,,2013-04-18 07:42:00,
2013-04-18 07:52:00,3.0,1.0,-100.00,WSW,258,9.0,12.0,89,0.00,,,-99.99,,2013-04-18 07:52:00,
2013-04-18 08:02:00,6.0,4.0,-100.00,West,260,12.0,16.0,91,0.00,,,-99.99,,2013-04-18 08:02:00,
2013-04-18 08:12:00,6.0,4.0,-100.00,WSW,257,12.0,16.0,92,0.00,,,-99.99,,2013-04-18 08:12:00,
2013-04-18 08:22:00,5.0,2.0,-100.00,WSW,257,13.0,15.0,88,0.00,,,-99.99,,2013-04-18 08:22:00,
2013-04-18 08:32:00,7.0,4.0,-100.00,WSW,253,14.0,16.0,89,0.00,,,-99.99,,2013-04-18 08:32:00,
2013-04-18 08:42:00,7.0,5.0,-100.00,West,260,14.0,18.0,89,0.00,,,-99.99,,2013-04-18 08:42:00,
2013-04-18 08:52:00,8.0,6.0,-100.00,WSW,248,16.0,19.0,88,0.00,,,-99.99,,2013-04-18 08:52:00,
2013-04-18 09:02:00,8.0,5.0,-100.00,WSW,248,14.0,17.0,87,0.00,,,-99.99,,2013-04-18 09:02:00,
2013-04-18 09:12:00,8.0,5.0,-100.00,WSW,244,16.0,20.0,85,0.00,,,-99.99,,2013-04-18 09:12:00,
2013-04-18 09:22:00,8.0,5.0,-100.00,WSW,248,17.0,21.0,86,0.00,,,-99.99,,2013-04-18 09:22:00,
2013-04-18 09:33:00,8.0,4.0,-100.00,WSW,254,16.0,20.0,86,0.00,,,-99.99,,2013-04-18 09:33:00,
2013-04-18 09:42:00,8.0,4.0,-100.00,WSW,251,13.0,17.0,86,0.00,,,-99.99,,2013-04-18 09:42:00,
2013-04-18 09:53:00,7.0,4.0,-100.00,WSW,248,12.0,15.0,85,0.00,,,-99.99,,2013-04-18 09:53:00,
2013-04-18 10:03:00,5.0,1.0,-100.00,WSW,257,11.0,14.0,84,0.00,,,-99.99,,2013-04-18 10:03:00,
2013-04-18 10:12:00,6.0,1.0,-100.00,WSW,257,11.0,14.0,81,0.00,,,-99.99,,2013-04-18 10:12:00,
2013-04-18 10:23:00,7.0,3.0,-100.00,WSW,257,12.0,16.0,83,0.00,,,-99.99,,2013-04-18 10:23:00,
2013-04-18 10:32:00,7.0,2.0,-100.00,West,263,13.0,17.0,83,0.00,,,-99.99,,2013-04-18 10:32:00,
2013-04-18 10:42:00,9.0,4.0,-100.00,WSW,246,14.0,18.0,81,0.00,,,-99.99,,2013-04-18 10:42:00,
2013-04-18 10:52:00,9.0,4.0,-100.00,WSW,244,16.0,19.0,81,0.00,,,-99.99,,2013-04-18 10:52:00,
2013-04-18 11:02:00,8.0,4.0,-100.00,WSW,244,15.0,19.0,81,0.00,,,-99.99,,2013-04-18 11:02:00,
2013-04-18 11:12:00,8.0,3.0,-100.00,WSW,244,16.0,19.0,81,0.00,,,-99.99,,2013-04-18 11:12:00,
2013-04-18 11:22:00,8.0,4.0,-100.00,WSW,244,16.0,19.0,82,0.00,,,-99.99,,2013-04-18 11:22:00,
2013-04-18 11:32:00,9.0,5.0,-100.00,WSW,241,19.0,24.0,81,0.00,,,-99.99,,2013-04-18 11:32:00,
2013-04-18 11:42:00,9.0,5.0,-100.00,WSW,246,19.0,24.0,81,0.00,,,-99.99,,2013-04-18 11:42:00,
2013-04-18 11:52:00,9.0,4.0,-100.00,WSW,248,17.0,21.0,81,0.00,,,-99.99,,2013-04-18 11:52:00,
2013-04-18 12:02:00,8.0,4.0,-100.00,WSW,253,16.0,19.0,81,0.00,,,-99.99,,2013-04-18 12:02:00,
2013-04-18 12:12:00,8.0,3.0,-100.00,WSW,247,17.0,21.0,79,0.00,,,-99.99,,2013-04-18 12:12:00,
2013-04-18 12:22:00,9.0,3.0,-100.00,WSW,239,19.0,24.0,77,0.00,,,-99.99,,2013-04-18 12:22:00,
2013-04-18 12:32:00,10.0,3.0,-100.00,WSW,237,21.0,29.0,73,0.00,,,-99.99,,2013-04-18 12:32:00,
2013-04-18 12:42:00,10.0,2.0,-100.00,WSW,243,22.0,30.0,71,0.00,,,-99.99,,2013-04-18 12:42:00,
2013-04-18 12:52:00,10.0,3.0,-100.00,WSW,243,23.0,30.0,74,0.00,,,-99.99,,2013-04-18 12:52:00,
2013-04-18 13:02:00,10.0,3.0,-100.00,WSW,243,24.0,32.0,75,0.00,,,-99.99,,2013-04-18 13:02:00,
2013-04-18 13:12:00,10.0,4.0,-100.00,WSW,246,24.0,33.0,76,0.00,,,-99.99,,2013-04-18 13:12:00,
2013-04-18 13:22:00,10.0,4.0,-100.00,WSW,243,24.0,31.0,76,0.00,,,-99.99,,2013-04-18 13:22:00,
2013-04-18 13:32:00,10.0,4.0,-100.00,WSW,243,24.0,32.0,76,0.00,,,-99.99,,2013-04-18 13:32:00,
2013-04-18 13:42:00,10.0,4.0,-100.00,WSW,243,24.0,32.0,76,0.00,,,-99.99,,2013-04-18 13:42:00,
2013-04-18 13:52:00,10.0,4.0,-100.00,WSW,243,25.0,32.0,76,0.00,,,-99.99,,2013-04-18 13:52:00,
2013-04-18 14:02:00,10.0,5.0,-100.00,WSW,248,26.0,32.0,78,0.00,,,-99.99,,2013-04-18 14:02:00,
2013-04-18 14:12:00,10.0,5.0,-100.00,WSW,250,24.0,29.0,78,0.00,,,-99.99,,2013-04-18 14:12:00,
2013-04-18 14:22:00,11.0,6.0,-100.00,WSW,250,26.0,34.0,80,0.00,,,-99.99,,2013-04-18 14:22:00,
2013-04-18 14:32:00,11.0,6.0,-100.00,WSW,248,27.0,34.0,81,0.00,,,-99.99,,2013-04-18 14:32:00,
2013-04-18 14:42:00,11.0,6.0,-100.00,WSW,250,27.0,34.0,82,0.00,,,-99.99,,2013-04-18 14:42:00,
2013-04-18 14:52:00,11.0,7.0,-100.00,WSW,248,29.0,37.0,84,0.00,,,-99.99,,2013-04-18 14:52:00,
2013-04-18 15:02:00,11.0,7.0,-100.00,WSW,250,27.0,34.0,85,0.00,,,-99.99,,2013-04-18 15:02:00,
2013-04-18 15:12:00,11.0,7.0,-100.00,WSW,251,28.0,37.0,85,0.00,,,-99.99,,2013-04-18 15:12:00,
2013-04-18 15:22:00,11.0,8.0,-100.00,WSW,254,29.0,35.0,85,0.00,,,-99.99,,2013-04-18 15:22:00,
2013-04-18 15:33:00,11.0,8.0,-100.00,WSW,253,28.0,36.0,86,0.00,,,-99.99,,2013-04-18 15:33:00,
2013-04-18 15:42:00,11.0,8.0,-100.00,WSW,254,26.0,34.0,86,0.00,,,-99.99,,2013-04-18 15:42:00,
2013-04-18 15:52:00,12.0,8.0,-100.00,WSW,254,26.0,34.0,84,0.00,,,-99.99,,2013-04-18 15:52:00,
2013-04-18 16:03:00,12.0,8.0,-100.00,WSW,251,26.0,33.0,83,0.03,,,-99.99,,2013-04-18 16:03:00,
2013-04-18 16:13:00,12.0,8.0,-100.00,WSW,248,27.0,34.0,83,0.01,,,-99.99,,2013-04-18 16:13:00,
2013-04-18 16:23:00,12.0,8.0,-100.00,WSW,250,25.0,31.0,82,0.01,,,-99.99,,2013-04-18 16:23:00,
2013-04-18 16:33:00,12.0,8.0,-100.00,WSW,254,26.0,32.0,82,0.00,,,-99.99,,2013-04-18 16:33:00,
2013-04-18 16:52:00,13.0,9.0,-100.00,WSW,254,27.0,36.0,83,0.00,,,-99.99,,2013-04-18 16:52:00,
2013-04-18 17:03:00,13.0,8.0,-100.00,WSW,253,26.0,32.0,79,0.00,,,-99.99,,2013-04-18 17:03:00,
2013-04-18 17:12:00,14.0,8.0,-100.00,WSW,248,27.0,34.0,78,0.00,,,-99.99,,2013-04-18 17:12:00,
2013-04-18 17:22:00,14.0,8.0,-100.00,WSW,247,25.0,32.0,76,0.00,,,-99.99,,2013-04-18 17:22:00,
2013-04-18 17:33:00,14.0,9.0,-100.00,WSW,251,28.0,34.0,78,0.01,,,-99.99,,2013-04-18 17:33:00,
2013-04-18 17:42:00,15.0,8.0,-100.00,WSW,253,27.0,34.0,74,0.00,,,-99.99,,2013-04-18 17:42:00,
2013-04-18 17:52:00,14.0,8.0,-100.00,WSW,247,28.0,36.0,76,0.00,,,-99.99,,2013-04-18 17:52:00,
2013-04-18 18:02:00,15.0,8.0,-100.00,WSW,248,30.0,37.0,73,0.00,,,-99.99,,2013-04-18 18:02:00,
2013-04-18 18:12:00,15.0,8.0,-100.00,WSW,248,30.0,39.0,72,0.00,,,-99.99,,2013-04-18 18:12:00,
2013-04-18 18:22:00,15.0,7.0,-100.00,WSW,247,29.0,37.0,69,0.00,,,-99.99,,2013-04-18 18:22:00,
2013-04-18 18:32:00,15.0,5.0,-100.00,WSW,247,30.0,37.0,64,0.00,,,-99.99,,2013-04-18 18:32:00,
2013-04-18 18:42:00,15.0,5.0,-100.00,WSW,244,31.0,39.0,63,0.00,,,-99.99,,2013-04-18 18:42:00,
2013-04-18 18:52:00,16.0,7.0,-100.00,WSW,247,30.0,36.0,67,0.00,,,-99.99,,2013-04-18 18:52:00,
2013-04-18 19:02:00,16.0,6.0,-100.00,WSW,248,29.0,39.0,63,0.00,,,-99.99,,2013-04-18 19:02:00,
2013-04-18 19:12:00,17.0,8.0,-100.00,WSW,251,29.0,40.0,69,0.00,,,-99.99,,2013-04-18 19:12:00,
2013-04-18 19:22:00,16.0,6.0,-100.00,WSW,250,32.0,40.0,63,0.00,,,-99.99,,2013-04-18 19:22:00,
2013-04-18 19:32:00,17.0,8.0,-100.00,WSW,246,31.0,43.0,68,0.00,,,-99.99,,2013-04-18 19:32:00,
2013-04-18 19:42:00,18.0,6.0,-100.00,WSW,248,29.0,37.0,61,0.00,,,-99.99,,2013-04-18 19:42:00,
2013-04-18 19:52:00,17.0,8.0,-100.00,WSW,241,31.0,38.0,65,0.00,,,-99.99,,2013-04-18 19:52:00,
2013-04-18 20:02:00,18.0,7.0,-100.00,WSW,241,30.0,39.0,62,0.00,,,-99.99,,2013-04-18 20:02:00,
2013-04-18 20:12:00,18.0,8.0,-100.00,WSW,239,29.0,39.0,65,0.00,,,-99.99,,2013-04-18 20:12:00,
2013-04-18 20:22:00,18.0,10.0,-100.00,WSW,243,30.0,37.0,69,0.00,,,-99.99,,2013-04-18 20:22:00,
2013-04-18 20:32:00,19.0,8.0,-100.00,WSW,244,32.0,42.0,64,0.00,,,-99.99,,2013-04-18 20:32:00,
2013-04-18 20:42:00,19.0,9.0,-100.00,WSW,248,32.0,39.0,66,0.00,,,-99.99,,2013-04-18 20:42:00,
2013-04-18 20:52:00,19.0,9.0,-100.00,WSW,251,32.0,40.0,65,0.00,,,-99.99,,2013-04-18 20:52:00,
2013-04-18 21:02:00,19.0,8.0,-100.00,WSW,248,30.0,37.0,61,0.00,,,-99.99,,2013-04-18 21:02:00,
2013-04-18 21:12:00,20.0,10.0,-100.00,WSW,250,29.0,35.0,65,0.00,,,-99.99,,2013-04-18 21:12:00,
2013-04-18 21:22:00,20.0,7.0,-100.00,WSW,250,29.0,37.0,57,0.00,,,-99.99,,2013-04-18 21:22:00,
2013-04-18 21:32:00,20.0,9.0,-100.00,WSW,251,29.0,35.0,61,0.00,,,-99.99,,2013-04-18 21:32:00,
2013-04-18 21:43:00,20.0,8.0,-100.00,WSW,250,29.0,35.0,59,0.00,,,-99.99,,2013-04-18 21:43:00,
2013-04-18 21:52:00,20.0,8.0,-100.00,WSW,246,27.0,37.0,59,0.00,,,-99.99,,2013-04-18 21:52:00,
2013-04-18 22:02:00,20.0,9.0,-100.00,WSW,250,29.0,38.0,61,0.00,,,-99.99,,2013-04-18 22:02:00,
2013-04-18 22:13:00,20.0,9.0,-100.00,WSW,253,30.0,35.0,60,0.00,,,-99.99,,2013-04-18 22:13:00,
2013-04-18 22:22:00,21.0,9.0,-100.00,WSW,251,30.0,37.0,59,0.00,,,-99.99,,2013-04-18 22:22:00,
2013-04-18 22:32:00,21.0,8.0,-100.00,WSW,256,27.0,34.0,57,0.00,,,-99.99,,2013-04-18 22:32:00,
2013-04-18 22:42:00,21.0,8.0,-100.00,WSW,250,27.0,34.0,56,0.00,,,-99.99,,2013-04-18 22:42:00,
2013-04-18 22:52:00,21.0,7.0,-100.00,WSW,247,27.0,33.0,54,0.00,,,-99.99,,2013-04-18 22:52:00,
2013-04-18 23:03:00,21.0,8.0,-100.00,WSW,248,29.0,36.0,56,0.00,,,-99.99,,2013-04-18 23:03:00,
2013-04-18 23:11:00,22.0,8.0,-100.00,WSW,248,29.0,34.0,54,0.00,,,-99.99,,2013-04-18 23:11:00,
2013-04-18 23:21:00,22.0,9.0,-100.00,WSW,248,27.0,35.0,57,0.00,,,-99.99,,2013-04-18 23:21:00,
2013-04-18 23:32:00,22.0,8.0,-100.00,WSW,251,26.0,32.0,55,0.00,,,-99.99,,2013-04-18 23:32:00,
2013-04-18 23:42:00,22.0,9.0,-100.00,WSW,253,28.0,34.0,56,0.00,,,-99.99,,2013-04-18 23:42:00,
2013-04-18 23:52:00,22.0,10.0,-100.00,WSW,251,28.0,34.0,58,0.00,,,-99.99,,2013-04-18 23:52:00,